Time;durP1;ratioP1;P1;durP2;ratioP2;P2;SDS_P1;SDS_P2;PMS_P1;PMS_P2;Temp;Humidity;BMP_temperature;BMP_pressure;BME280_temperature;BME280_humidity;BME280_pressure;Samples;Min_cycle;Max_cycle;Signal;HPM_P1;HPM_P2
2021/11/17 02:27:58;;;;;;;2.17;2.00;;;11.00;96.00;;;;;;5069831;28;20543;-72
2021/11/17 02:30:55;;;;;;;6.07;4.50;;;11.00;96.00;;;;;;5082625;28;20214;-72
2021/11/17 02:33:22;;;;;;;2.97;1.07;;;11.00;96.00;;;;;;5076613;28;20221;-72
2021/11/17 02:36:36;;;;;;;4.27;2.87;;;11.00;96.10;;;;;;5075699;28;20343;-72
2021/11/17 02:39:25;;;;;;;3.47;2.57;;;11.00;96.10;;;;;;5008020;28;20815;-72
2021/11/17 02:42:02;;;;;;;3.93;2.20;;;11.00;96.10;;;;;;5085878;28;20612;-72
2021/11/17 02:44:48;;;;;;;1.33;1.33;;;11.00;96.10;;;;;;5072952;28;20227;-72
2021/11/17 02:47:42;;;;;;;2.57;2.37;;;11.00;96.10;;;;;;5076993;28;20213;-73
2021/11/17 02:50:59;;;;;;;6.33;2.47;;;11.10;96.10;;;;;;5067939;28;20218;-72
2021/11/17 02:53:29;;;;;;;7.93;3.40;;;11.10;96.10;;;;;;4978719;28;20348;-72
2021/11/17 02:56:04;;;;;;;2.87;0.90;;;11.10;96.10;;;;;;4992574;28;20629;-72
2021/11/17 02:58:56;;;;;;;2.83;2.60;;;11.10;96.10;;;;;;5060903;28;20220;-72
2021/11/17 03:01:54;;;;;;;3.73;2.50;;;11.00;96.10;;;;;;5078542;28;20662;-72
2021/11/17 03:04:44;;;;;;;1.57;1.47;;;11.10;96.20;;;;;;5075422;28;20256;-72
2021/11/17 03:07:35;;;;;;;3.70;2.57;;;11.10;96.10;;;;;;5070052;28;20555;-72
2021/11/17 03:10:08;;;;;;;2.30;2.20;;;11.10;96.10;;;;;;5063103;28;20216;-72
2021/11/17 03:12:53;;;;;;;2.53;2.40;;;11.20;96.10;;;;;;5082815;28;20271;-72
2021/11/17 03:15:36;;;;;;;3.57;3.23;;;11.20;96.10;;;;;;5091082;28;20209;-72
2021/11/17 03:18:09;;;;;;;3.03;2.83;;;11.30;96.10;;;;;;5086613;28;20221;-72
2021/11/17 03:20:42;;;;;;;3.40;2.07;;;11.30;96.10;;;;;;5082732;28;20219;-72
2021/11/17 03:23:16;;;;;;;5.17;3.67;;;11.20;96.10;;;;;;5084487;28;20239;-72
2021/11/17 03:26:04;;;;;;;5.93;3.77;;;11.30;96.10;;;;;;5086101;28;20582;-72
2021/11/17 03:28:46;;;;;;;1.47;1.37;;;11.30;96.10;;;;;;5085908;28;20210;-72
2021/11/17 03:31:33;;;;;;;2.70;2.27;;;11.30;96.10;;;;;;5083605;28;20209;-72
2021/11/17 03:34:13;;;;;;;3.77;3.47;;;11.30;96.10;;;;;;5074761;28;20214;-72
2021/11/17 03:37:02;;;;;;;1.93;1.83;;;11.30;96.00;;;;;;5081897;28;20213;-72
2021/11/17 03:39:54;;;;;;;3.83;1.50;;;11.30;96.00;;;;;;5062933;28;20260;-72
2021/11/17 03:42:47;;;;;;;1.97;1.83;;;11.30;96.00;;;;;;5080626;28;20221;-72
2021/11/17 03:45:48;;;;;;;1.57;1.53;;;11.30;96.00;;;;;;5085659;28;20245;-72
2021/11/17 03:48:16;;;;;;;2.23;2.10;;;11.30;96.00;;;;;;5077592;28;20215;-72
2021/11/17 03:50:55;;;;;;;3.33;2.23;;;11.30;96.00;;;;;;5086181;28;20372;-72
2021/11/17 03:53:31;;;;;;;2.57;1.47;;;11.30;96.00;;;;;;5084377;28;20254;-72
2021/11/17 03:56:24;;;;;;;6.97;3.20;;;11.30;96.00;;;;;;5089696;28;20219;-72
2021/11/17 03:59:15;;;;;;;2.03;1.87;;;11.30;95.90;;;;;;5091536;28;20563;-72
2021/11/17 04:02:21;;;;;;;4.40;4.00;;;11.30;95.90;;;;;;5074566;28;20692;-72
2021/11/17 04:05:03;;;;;;;3.83;3.10;;;11.30;95.90;;;;;;5070104;28;20214;-72
2021/11/17 04:08:05;;;;;;;1.83;1.67;;;11.30;95.90;;;;;;5074488;28;20218;-72
2021/11/17 04:10:34;;;;;;;2.07;1.83;;;11.30;95.80;;;;;;5078662;28;20216;-72
2021/11/17 04:13:13;;;;;;;3.97;2.40;;;11.30;96.10;;;;;;5078196;28;20202;-72
2021/11/17 04:16:09;;;;;;;7.20;2.67;;;11.30;95.80;;;;;;5092056;28;20208;-72
2021/11/17 04:19:04;;;;;;;1.33;1.30;;;11.30;95.90;;;;;;5049531;28;20213;-72
2021/11/17 04:22:06;;;;;;;7.53;3.57;;;11.30;95.90;;;;;;5074629;28;20224;-72
2021/11/17 04:24:46;;;;;;;2.03;1.70;;;11.30;95.90;;;;;;5061100;28;20217;-72
2021/11/17 04:27:28;;;;;;;5.17;4.40;;;11.30;95.80;;;;;;5077820;28;20226;-72
2021/11/17 04:29:55;;;;;;;3.97;1.53;;;11.30;95.80;;;;;;5087126;28;20642;-72
2021/11/17 04:32:31;;;;;;;6.23;1.80;;;11.30;95.80;;;;;;5083717;28;20206;-72
2021/11/17 04:35:16;;;;;;;9.03;2.53;;;11.30;95.90;;;;;;5082719;28;20213;-72
2021/11/17 04:37:43;;;;;;;2.00;1.90;;;11.30;95.90;;;;;;5089098;28;20641;-72
2021/11/17 04:40:28;;;;;;;2.60;2.40;;;11.30;95.80;;;;;;5081824;28;20253;-72
2021/11/17 04:42:59;;;;;;;2.40;2.10;;;11.30;95.80;;;;;;5091490;28;20216;-72
2021/11/17 04:45:44;;;;;;;12.87;3.17;;;11.30;95.80;;;;;;5082952;28;20237;-72
2021/11/17 04:48:21;;;;;;;9.83;4.00;;;11.30;95.80;;;;;;5083599;28;20216;-72
2021/11/17 04:50:54;;;;;;;13.07;3.60;;;11.30;95.80;;;;;;5083624;28;20220;-72
2021/11/17 04:53:46;;;;;;;1.30;1.30;;;11.30;95.80;;;;;;5083098;28;20218;-72
2021/11/17 04:56:48;;;;;;;6.47;4.57;;;11.30;95.80;;;;;;5081735;28;20221;-72
2021/11/17 04:59:34;;;;;;;5.73;3.90;;;11.30;95.80;;;;;;5008566;28;20620;-72
2021/11/17 05:02:12;;;;;;;6.23;3.67;;;11.30;95.70;;;;;;5079545;28;20221;-72
2021/11/17 05:05:01;;;;;;;2.47;2.10;;;11.30;95.80;;;;;;5084529;28;20217;-72
2021/11/17 05:07:55;;;;;;;5.13;4.70;;;11.30;95.70;;;;;;5088038;28;20221;-72
2021/11/17 05:10:47;;;;;;;4.23;3.83;;;11.30;95.70;;;;;;5079883;28;20214;-72
2021/11/17 05:13:35;;;;;;;2.03;1.93;;;11.30;95.80;;;;;;5082245;28;20301;-72
2021/11/17 05:16:24;;;;;;;4.00;3.13;;;11.30;95.80;;;;;;5076674;28;20277;-72
2021/11/17 05:19:09;;;;;;;2.77;2.57;;;11.40;95.70;;;;;;5079262;28;20602;-72
2021/11/17 05:21:54;;;;;;;4.77;4.13;;;11.30;95.70;;;;;;5078614;28;20221;-72
2021/11/17 05:24:43;;;;;;;8.80;3.87;;;11.40;95.70;;;;;;5089267;28;20212;-72
2021/11/17 05:27:25;;;;;;;2.67;2.43;;;11.40;95.70;;;;;;5073508;28;20693;-72
2021/11/17 05:29:57;;;;;;;2.83;2.63;;;11.40;95.70;;;;;;5088889;28;20213;-72
2021/11/17 05:33:00;;;;;;;5.20;3.03;;;11.40;95.70;;;;;;5088369;28;20618;-72
2021/11/17 05:36:11;;;;;;;2.40;2.30;;;11.30;95.70;;;;;;5043575;28;20561;-72
2021/11/17 05:38:38;;;;;;;2.33;1.80;;;11.40;95.70;;;;;;5071926;28;20249;-72
2021/11/17 05:41:16;;;;;;;15.40;2.97;;;11.40;95.70;;;;;;5075000;28;20233;-72
2021/11/17 05:44:01;;;;;;;4.73;4.23;;;11.30;95.60;;;;;;5076008;28;20651;-72
2021/11/17 05:47:09;;;;;;;10.20;2.30;;;11.30;95.60;;;;;;5083403;28;20681;-72
2021/11/17 05:50:29;;;;;;;4.77;4.47;;;11.30;95.60;;;;;;5077685;28;20209;-72
2021/11/17 05:53:20;;;;;;;2.83;2.63;;;11.20;95.80;;;;;;5041957;28;20209;-72
2021/11/17 05:56:02;;;;;;;6.13;3.80;;;11.10;95.80;;;;;;5071101;28;20223;-72
2021/11/17 05:58:35;;;;;;;3.80;2.13;;;11.20;95.90;;;;;;5079301;28;20217;-72
2021/11/17 06:01:17;;;;;;;2.57;2.47;;;11.20;95.90;;;;;;5084704;28;20217;-72
2021/11/17 06:04:04;;;;;;;3.17;2.97;;;11.10;95.90;;;;;;5082008;28;20208;-72
2021/11/17 06:06:39;;;;;;;3.43;2.17;;;11.20;96.00;;;;;;5082170;28;20232;-72
2021/11/17 06:09:06;;;;;;;4.00;3.03;;;11.20;96.00;;;;;;5081020;28;20637;-72
2021/11/17 06:11:38;;;;;;;11.57;5.50;;;11.20;96.00;;;;;;5084930;28;20213;-72
2021/11/17 06:14:09;;;;;;;2.90;2.70;;;11.20;96.00;;;;;;5084901;28;20217;-72
2021/11/17 06:16:47;;;;;;;5.50;2.17;;;11.20;95.90;;;;;;5082354;28;20301;-72
2021/11/17 06:19:18;;;;;;;10.60;5.90;;;11.10;96.00;;;;;;5084779;28;20227;-72
2021/11/17 06:21:46;;;;;;;4.53;3.57;;;11.10;96.10;;;;;;5084710;28;20217;-72
2021/11/17 06:24:17;;;;;;;3.23;3.00;;;11.20;96.10;;;;;;5083726;28;20296;-72
2021/11/17 06:26:45;;;;;;;7.27;5.90;;;11.20;96.10;;;;;;5076924;28;20237;-72
2021/11/17 06:29:39;;;;;;;7.23;2.53;;;11.20;96.10;;;;;;5080963;28;20220;-72
2021/11/17 06:32:08;;;;;;;1.87;1.77;;;11.20;96.10;;;;;;5088303;28;20300;-72
2021/11/17 06:34:44;;;;;;;13.17;5.50;;;11.30;96.20;;;;;;5084739;28;20209;-72
2021/11/17 06:37:14;;;;;;;2.60;2.47;;;11.30;96.20;;;;;;5090117;28;20307;-72
2021/11/17 06:39:44;;;;;;;1.43;1.20;;;11.30;96.20;;;;;;5091412;28;20241;-72
2021/11/17 06:42:24;;;;;;;9.27;3.83;;;11.40;96.20;;;;;;5094235;28;20217;-72
2021/11/17 06:44:53;;;;;;;3.17;2.97;;;11.40;96.20;;;;;;5085176;28;20221;-72
2021/11/17 06:47:20;;;;;;;4.87;3.67;;;11.40;96.10;;;;;;5088910;28;20328;-72
2021/11/17 06:49:47;;;;;;;4.30;3.23;;;11.40;96.10;;;;;;5076781;28;20259;-72
2021/11/17 06:52:15;;;;;;;3.70;2.87;;;11.40;96.10;;;;;;5090983;28;20216;-72
2021/11/17 06:54:42;;;;;;;2.33;2.13;;;11.40;96.10;;;;;;5092161;28;20295;-72
2021/11/17 06:57:09;;;;;;;13.60;4.40;;;11.50;96.10;;;;;;5075929;28;20214;-72
2021/11/17 06:59:36;;;;;;;4.03;2.60;;;11.50;96.10;;;;;;5085034;28;20224;-72
2021/11/17 07:02:06;;;;;;;4.47;2.97;;;11.50;96.10;;;;;;5086660;28;20222;-72
2021/11/17 07:04:35;;;;;;;6.20;3.53;;;11.50;96.10;;;;;;5087741;28;20221;-72
2021/11/17 07:07:03;;;;;;;6.80;2.70;;;11.50;96.10;;;;;;5087647;28;20251;-72
2021/11/17 07:09:30;;;;;;;7.23;6.43;;;11.50;96.00;;;;;;5086564;28;20217;-72
2021/11/17 07:11:57;;;;;;;5.30;1.97;;;11.60;96.00;;;;;;5085978;28;20201;-72
2021/11/17 07:14:25;;;;;;;2.10;1.90;;;11.60;96.00;;;;;;5082496;28;20221;-72
2021/11/17 07:16:53;;;;;;;9.63;4.90;;;11.60;96.00;;;;;;5084229;28;20218;-72
2021/11/17 07:19:24;;;;;;;3.70;2.50;;;11.60;96.00;;;;;;5083924;28;20299;-72
2021/11/17 07:21:53;;;;;;;3.37;2.97;;;11.60;96.00;;;;;;5089797;28;20224;-72
2021/11/17 07:24:22;;;;;;;3.33;3.13;;;11.60;95.90;;;;;;5087028;28;20209;-72
2021/11/17 07:26:49;;;;;;;1.50;1.50;;;11.60;95.90;;;;;;5086639;28;20251;-72
2021/11/17 07:29:17;;;;;;;5.13;3.50;;;11.70;95.90;;;;;;5088927;28;20240;-72
2021/11/17 07:31:44;;;;;;;4.37;2.97;;;11.70;95.90;;;;;;5085015;28;20218;-72
2021/11/17 07:34:12;;;;;;;0.83;0.83;;;11.70;95.90;;;;;;5085358;28;20212;-72
2021/11/17 07:36:41;;;;;;;5.97;4.03;;;11.70;95.90;;;;;;5086862;28;20627;-72
2021/11/17 07:39:14;;;;;;;4.07;3.77;;;11.70;95.90;;;;;;5088170;28;20245;-72
2021/11/17 07:41:44;;;;;;;4.53;4.00;;;11.70;95.90;;;;;;5087734;28;20295;-72
2021/11/17 07:44:16;;;;;;;3.47;3.23;;;11.80;95.90;;;;;;5081188;28;20214;-72
2021/11/17 07:46:46;;;;;;;8.20;4.60;;;11.80;95.80;;;;;;5085943;28;20237;-72
2021/11/17 07:49:15;;;;;;;6.80;3.83;;;11.80;95.80;;;;;;5090609;28;20210;-72
2021/11/17 07:51:44;;;;;;;6.40;3.67;;;11.80;95.70;;;;;;5088820;28;20639;-72
2021/11/17 07:54:12;;;;;;;8.77;4.80;;;11.80;95.70;;;;;;5088566;28;20553;-72
2021/11/17 07:56:41;;;;;;;6.43;2.87;;;11.80;95.70;;;;;;5080640;28;20224;-72
2021/11/17 07:59:12;;;;;;;13.13;5.17;;;11.80;95.70;;;;;;5091486;28;20635;-72
2021/11/17 08:01:39;;;;;;;3.07;2.97;;;11.80;95.70;;;;;;5084833;28;20225;-72
2021/11/17 08:04:08;;;;;;;1.50;1.50;;;11.80;95.60;;;;;;5093965;28;20235;-72
2021/11/17 08:06:35;;;;;;;10.77;5.93;;;11.90;95.70;;;;;;5079065;28;20687;-72
2021/11/17 08:09:02;;;;;;;2.60;1.80;;;11.90;95.70;;;;;;5083326;28;20209;-72
2021/11/17 08:11:31;;;;;;;2.10;1.90;;;11.90;95.70;;;;;;5085935;28;20681;-72
2021/11/17 08:13:59;;;;;;;3.43;2.97;;;11.90;95.60;;;;;;5091925;28;20217;-72
2021/11/17 08:16:26;;;;;;;52.10;5.23;;;11.90;95.60;;;;;;5087305;28;20217;-72
2021/11/17 08:18:53;;;;;;;1.73;1.63;;;11.90;95.60;;;;;;5077805;28;20300;-72
2021/11/17 08:21:21;;;;;;;6.93;5.67;;;11.90;95.60;;;;;;5090174;28;20291;-72
2021/11/17 08:23:48;;;;;;;3.43;3.17;;;12.00;95.60;;;;;;5092342;28;20532;-72
2021/11/17 08:26:18;;;;;;;5.20;4.07;;;12.00;95.60;;;;;;5075354;28;20233;-72
2021/11/17 08:28:46;;;;;;;6.83;6.20;;;12.00;95.60;;;;;;5085701;28;20221;-72
2021/11/17 08:31:14;;;;;;;11.73;4.43;;;12.00;95.40;;;;;;5090789;28;20215;-73
2021/11/17 08:33:43;;;;;;;9.73;3.70;;;11.90;95.40;;;;;;5088898;28;20213;-72
2021/11/17 08:36:12;;;;;;;3.60;3.40;;;11.90;95.40;;;;;;5088510;28;20235;-72
2021/11/17 08:38:39;;;;;;;4.40;4.03;;;11.90;95.40;;;;;;5087035;28;20241;-71
2021/11/17 08:41:08;;;;;;;7.23;4.80;;;11.90;95.30;;;;;;5082057;28;20221;-72
2021/11/17 08:43:36;;;;;;;15.67;5.53;;;11.90;95.30;;;;;;5083388;28;20244;-71
2021/11/17 08:46:03;;;;;;;2.90;2.70;;;11.90;95.30;;;;;;5086270;28;20228;-71
2021/11/17 08:48:33;;;;;;;2.00;1.80;;;11.90;95.20;;;;;;5083693;28;20270;-72
2021/11/17 08:51:03;;;;;;;14.90;5.10;;;11.90;95.20;;;;;;5084011;28;20213;-71
2021/11/17 08:53:33;;;;;;;4.20;2.67;;;11.90;95.20;;;;;;5084167;28;20218;-71
2021/11/17 08:56:03;;;;;;;2.60;2.43;;;11.90;95.20;;;;;;5086885;28;20209;-71
2021/11/17 08:58:31;;;;;;;10.20;5.77;;;11.90;95.10;;;;;;5087588;28;20209;-72
2021/11/17 09:00:58;;;;;;;2.10;1.93;;;11.90;95.10;;;;;;5087997;28;20275;-71
2021/11/17 09:03:27;;;;;;;6.73;3.47;;;11.90;95.10;;;;;;5081683;28;20275;-71
2021/11/17 09:05:58;;;;;;;4.40;4.10;;;11.90;95.10;;;;;;5084925;28;20650;-72
2021/11/17 09:08:25;;;;;;;4.37;3.23;;;12.00;95.10;;;;;;5083643;28;20216;-71
2021/11/17 09:10:57;;;;;;;23.90;5.60;;;12.00;95.00;;;;;;5079120;28;20213;-71
2021/11/17 09:13:24;;;;;;;4.07;3.83;;;12.00;94.90;;;;;;5080306;28;20635;-72
2021/11/17 09:15:54;;;;;;;6.23;5.07;;;12.00;94.80;;;;;;5078030;28;20283;-72
2021/11/17 09:18:24;;;;;;;7.23;2.63;;;12.00;94.80;;;;;;5079378;28;20216;-72
2021/11/17 09:20:51;;;;;;;4.33;3.30;;;12.10;94.80;;;;;;5083551;28;20252;-72
2021/11/17 09:23:19;;;;;;;2.87;2.77;;;12.10;94.70;;;;;;5075062;28;20214;-72
2021/11/17 09:25:47;;;;;;;5.27;3.60;;;12.20;94.80;;;;;;5086718;28;20304;-72
2021/11/17 09:28:19;;;;;;;4.17;3.33;;;12.30;94.70;;;;;;5074937;28;20693;-71
2021/11/17 09:30:47;;;;;;;2.33;2.13;;;12.30;94.50;;;;;;5074179;28;20232;-71
2021/11/17 09:33:15;;;;;;;2.40;1.63;;;12.30;94.50;;;;;;5076251;28;20224;-71
2021/11/17 09:35:44;;;;;;;3.90;3.60;;;12.30;94.40;;;;;;5088805;28;20220;-72
2021/11/17 09:38:13;;;;;;;2.70;2.50;;;12.30;94.40;;;;;;5082300;28;20648;-72
2021/11/17 09:40:54;;;;;;;5.40;2.97;;;12.40;94.40;;;;;;5090137;28;20542;-71
2021/11/17 09:43:50;;;;;;;9.80;3.17;;;12.40;94.40;;;;;;5092214;28;20312;-72
2021/11/17 09:46:21;;;;;;;4.57;3.40;;;12.40;94.30;;;;;;5080646;28;20209;-71
2021/11/17 09:48:51;;;;;;;10.40;3.50;;;12.50;94.40;;;;;;5081492;28;20237;-71
2021/11/17 09:51:41;;;;;;;18.07;2.40;;;12.60;94.30;;;;;;5088058;28;20606;-71
2021/11/17 09:54:11;;;;;;;10.47;3.97;;;12.70;94.20;;;;;;5088404;28;20654;-71
2021/11/17 09:56:43;;;;;;;8.37;3.97;;;12.80;93.90;;;;;;5086305;28;20236;-72
2021/11/17 09:59:21;;;;;;;6.23;2.90;;;12.90;93.80;;;;;;5083298;28;20607;-72
2021/11/17 10:02:01;;;;;;;4.33;2.30;;;13.00;93.50;;;;;;5085242;28;20221;-71
2021/11/17 10:04:39;;;;;;;11.87;4.57;;;13.00;93.20;;;;;;5083477;28;20251;-71
2021/11/17 10:07:51;;;;;;;3.43;2.23;;;13.10;93.10;;;;;;5083605;28;20244;-72
2021/11/17 10:13:14;;;;;;;9.77;3.20;;;13.10;93.10;;;;;;5082553;28;20208;-71
2021/11/17 10:15:45;;;;;;;1.87;1.30;;;13.20;93.10;;;;;;5091713;28;20213;-71
2021/11/17 10:18:19;;;;;;;3.20;3.00;;;13.20;93.00;;;;;;5087759;28;20278;-71
2021/11/17 10:20:50;;;;;;;1.13;1.13;;;13.20;93.10;;;;;;5077506;28;20540;-71
2021/11/17 10:23:22;;;;;;;3.47;2.73;;;13.20;93.10;;;;;;5086246;28;20546;-72
2021/11/17 10:25:51;;;;;;;1.97;1.87;;;13.20;93.10;;;;;;5084260;28;20206;-72
2021/11/17 10:28:40;;;;;;;9.03;2.47;;;13.20;93.40;;;;;;5090937;28;20232;-72
2021/11/17 10:31:22;;;;;;;5.33;2.83;;;13.20;93.10;;;;;;5088067;28;20333;-72
2021/11/17 10:34:04;;;;;;;3.17;2.90;;;13.20;93.10;;;;;;5092015;28;20241;-72
2021/11/17 10:36:59;;;;;;;2.17;2.07;;;13.20;92.90;;;;;;5094978;28;20209;-72
2021/11/17 10:39:29;;;;;;;6.03;4.40;;;13.30;92.60;;;;;;5078395;28;20247;-72
2021/11/17 10:42:15;;;;;;;5.37;1.13;;;13.30;92.50;;;;;;5077944;28;20544;-71
2021/11/17 10:44:45;;;;;;;3.27;3.00;;;13.20;92.50;;;;;;5097128;28;20217;-71
2021/11/17 10:47:21;;;;;;;4.07;3.77;;;13.30;92.60;;;;;;5084318;28;20662;-71
2021/11/17 10:50:04;;;;;;;5.63;3.87;;;13.40;92.60;;;;;;5078097;28;20221;-71
2021/11/17 10:53:01;;;;;;;2.03;1.93;;;13.40;92.10;;;;;;5079026;28;20222;-71
2021/11/17 10:55:46;;;;;;;4.53;3.60;;;13.40;91.90;;;;;;5095159;28;20224;-71
2021/11/17 10:58:31;;;;;;;1.17;1.17;;;13.40;92.10;;;;;;5094772;28;20270;-70
2021/11/17 11:01:13;;;;;;;1.20;1.10;;;13.40;92.10;;;;;;5089372;28;20595;-71
2021/11/17 11:04:01;;;;;;;2.47;1.83;;;13.50;92.20;;;;;;5093830;28;20231;-71
2021/11/17 11:06:31;;;;;;;5.27;3.17;;;13.60;92.20;;;;;;5085530;28;20248;-71
2021/11/17 11:09:01;;;;;;;5.90;4.30;;;13.80;92.20;;;;;;5082627;28;20237;-71
2021/11/17 11:11:30;;;;;;;2.07;1.97;;;13.80;92.10;;;;;;5084802;28;20221;-71
2021/11/17 11:14:09;;;;;;;5.43;3.47;;;13.90;92.00;;;;;;5085036;28;20210;-71
2021/11/17 11:16:44;;;;;;;5.30;2.50;;;13.90;91.50;;;;;;5087689;28;20275;-71
2021/11/17 11:19:12;;;;;;;4.07;2.57;;;13.80;91.10;;;;;;5089076;28;20212;-71
2021/11/17 11:21:46;;;;;;;10.20;3.40;;;13.80;90.80;;;;;;5088722;28;20204;-72
2021/11/17 11:24:40;;;;;;;5.47;4.33;;;13.80;91.00;;;;;;5087526;28;20557;-71
2021/11/17 11:27:20;;;;;;;6.23;3.90;;;13.80;91.20;;;;;;5093511;28;20233;-71
2021/11/17 11:30:09;;;;;;;5.87;2.70;;;13.80;91.20;;;;;;5093801;28;20213;-71
2021/11/17 11:32:39;;;;;;;3.50;3.20;;;13.80;90.80;;;;;;5088640;28;20206;-71
2021/11/17 11:35:06;;;;;;;2.83;2.03;;;13.80;91.00;;;;;;5087499;28;20209;-71
2021/11/17 11:37:33;;;;;;;2.47;1.63;;;13.80;91.10;;;;;;5089020;28;20228;-71
2021/11/17 11:40:25;;;;;;;9.67;3.83;;;13.80;91.00;;;;;;5083296;28;20241;-71
2021/11/17 11:43:07;;;;;;;3.13;2.93;;;13.90;91.00;;;;;;5088872;28;20225;-71
2021/11/17 11:45:39;;;;;;;2.47;2.30;;;13.90;91.10;;;;;;5091062;28;20216;-71
2021/11/17 11:48:24;;;;;;;2.27;2.17;;;13.90;91.10;;;;;;5087431;28;20229;-72
2021/11/17 11:51:21;;;;;;;4.90;3.00;;;14.00;91.30;;;;;;5092035;28;20622;-72
2021/11/17 11:54:13;;;;;;;4.60;4.27;;;14.00;91.20;;;;;;5080521;28;20219;-71
2021/11/17 11:56:48;;;;;;;2.70;2.20;;;14.10;90.90;;;;;;5079070;28;20248;-72
2021/11/17 11:59:24;;;;;;;5.50;2.87;;;14.10;90.80;;;;;;5081178;28;20221;-72
2021/11/17 12:02:08;;;;;;;3.80;2.77;;;14.00;90.80;;;;;;5076374;28;20680;-72
2021/11/17 12:05:14;;;;;;;3.70;2.87;;;13.90;90.90;;;;;;5076764;28;20213;-72
2021/11/17 12:07:55;;;;;;;6.47;3.20;;;13.90;91.10;;;;;;5087234;28;20236;-71
2021/11/17 12:10:30;;;;;;;2.23;2.10;;;13.90;91.20;;;;;;5081206;28;20221;-71
2021/11/17 12:13:28;;;;;;;3.60;2.80;;;13.90;91.30;;;;;;5092694;28;20707;-71
2021/11/17 12:15:58;;;;;;;1.97;1.87;;;13.90;91.30;;;;;;5093731;28;20232;-71
2021/11/17 12:18:25;;;;;;;5.50;3.53;;;13.80;91.00;;;;;;5079672;28;20223;-71
2021/11/17 12:20:59;;;;;;;5.60;4.10;;;13.80;91.00;;;;;;5079252;28;20218;-71
2021/11/17 12:23:31;;;;;;;3.27;2.97;;;13.80;91.00;;;;;;5089274;28;20220;-72
2021/11/17 12:26:07;;;;;;;7.30;3.27;;;13.80;91.00;;;;;;5082670;28;20216;-71
2021/11/17 12:29:04;;;;;;;7.83;3.70;;;13.80;91.00;;;;;;5090057;28;20233;-71
2021/11/17 12:31:38;;;;;;;2.33;1.73;;;13.80;90.90;;;;;;5060615;28;20214;-72
2021/11/17 12:34:30;;;;;;;4.93;3.13;;;13.80;90.90;;;;;;5087030;28;20296;-72
2021/11/17 12:37:26;;;;;;;2.80;2.60;;;13.80;90.80;;;;;;5089029;28;20674;-72
2021/11/17 12:39:59;;;;;;;3.70;2.70;;;13.90;90.90;;;;;;5084317;28;20245;-72
2021/11/17 12:42:30;;;;;;;5.60;1.90;;;13.90;90.80;;;;;;5086940;28;20297;-72
2021/11/17 12:45:13;;;;;;;3.13;2.70;;;13.90;90.60;;;;;;5075711;28;20218;-72
2021/11/17 12:47:46;;;;;;;2.20;2.10;;;13.90;90.60;;;;;;5081786;28;20238;-72
2021/11/17 12:50:35;;;;;;;2.37;2.17;;;13.90;90.70;;;;;;5082683;28;20214;-72
2021/11/17 12:53:20;;;;;;;4.00;3.63;;;14.00;90.40;;;;;;5081278;28;20222;-72
2021/11/17 12:55:56;;;;;;;2.60;2.40;;;14.00;90.10;;;;;;5091126;28;20210;-72
2021/11/17 12:58:34;;;;;;;2.77;2.20;;;14.00;90.10;;;;;;5085313;28;20647;-72
2021/11/17 13:01:11;;;;;;;6.00;2.83;;;14.00;90.20;;;;;;5086707;28;20299;-71
2021/11/17 13:03:48;;;;;;;3.57;2.83;;;14.10;90.30;;;;;;5081871;28;20260;-71
2021/11/17 13:06:18;;;;;;;4.77;2.07;;;14.10;90.30;;;;;;5079468;28;20217;-71
2021/11/17 13:08:47;;;;;;;7.27;3.73;;;14.20;90.30;;;;;;5082277;28;20237;-71
2021/11/17 13:11:20;;;;;;;3.40;2.90;;;14.20;89.80;;;;;;5081631;28;20228;-71
2021/11/17 13:13:55;;;;;;;4.80;2.40;;;14.30;89.30;;;;;;5089289;28;20209;-71
2021/11/17 13:16:27;;;;;;;2.13;1.97;;;14.20;89.10;;;;;;5079499;28;20216;-71
2021/11/17 13:19:32;;;;;;;4.70;1.70;;;14.20;89.50;;;;;;5076909;28;20299;-71
2021/11/17 13:22:22;;;;;;;4.03;2.77;;;14.30;89.70;;;;;;5083975;28;20639;-71
2021/11/17 13:24:52;;;;;;;1.80;1.70;;;14.30;89.20;;;;;;5070293;28;20220;-71
2021/11/17 13:27:37;;;;;;;5.30;2.23;;;14.30;89.40;;;;;;5073997;28;20233;-71
2021/11/17 13:30:40;;;;;;;16.87;5.73;;;14.40;89.70;;;;;;5087649;28;20214;-72
2021/11/17 13:33:27;;;;;;;4.27;2.63;;;14.40;89.70;;;;;;5010526;28;20987;-71
2021/11/17 13:36:08;;;;;;;3.37;1.90;;;14.40;89.60;;;;;;5072617;28;20213;-71
2021/11/17 13:38:38;;;;;;;6.67;4.03;;;14.50;89.80;;;;;;5091169;28;20480;-71
2021/11/17 13:41:09;;;;;;;2.67;2.47;;;14.50;89.90;;;;;;5086862;28;20205;-71
2021/11/17 13:43:38;;;;;;;2.53;1.87;;;14.40;90.00;;;;;;5090497;28;20217;-71
2021/11/17 13:46:09;;;;;;;2.87;2.03;;;14.40;90.00;;;;;;5085080;28;20611;-72
2021/11/17 13:48:39;;;;;;;2.57;2.37;;;14.40;90.10;;;;;;5088242;28;20233;-71
2021/11/17 13:51:08;;;;;;;2.37;2.23;;;14.30;90.10;;;;;;5078353;28;20681;-71
2021/11/17 13:53:36;;;;;;;2.93;2.47;;;14.30;90.20;;;;;;5079990;28;20244;-72
2021/11/17 13:56:11;;;;;;;4.03;2.73;;;14.30;90.20;;;;;;5079367;28;20220;-71
2021/11/17 13:58:39;;;;;;;0.60;0.60;;;14.30;90.30;;;;;;5090375;28;20212;-71
2021/11/17 14:01:07;;;;;;;9.33;3.87;;;14.30;90.30;;;;;;5081603;28;20301;-72
2021/11/17 14:03:35;;;;;;;1.73;1.33;;;14.20;90.40;;;;;;5082076;28;20267;-71
2021/11/17 14:06:05;;;;;;;4.27;3.33;;;14.20;90.40;;;;;;5083444;28;20214;-72
2021/11/17 14:08:33;;;;;;;5.33;3.53;;;14.20;90.50;;;;;;5081090;28;20228;-72
2021/11/17 14:11:02;;;;;;;5.63;4.10;;;14.10;90.50;;;;;;5079063;28;20209;-71
2021/11/17 14:13:29;;;;;;;2.10;1.47;;;14.20;90.60;;;;;;5082800;28;20209;-71
2021/11/17 14:15:56;;;;;;;2.83;2.30;;;14.10;90.60;;;;;;5081964;28;20209;-71
2021/11/17 14:18:24;;;;;;;1.30;1.27;;;14.10;90.70;;;;;;5079624;28;20228;-72
2021/11/17 14:20:51;;;;;;;2.13;1.93;;;14.10;90.80;;;;;;5079590;28;20220;-71
2021/11/17 14:23:19;;;;;;;2.03;1.93;;;14.10;90.80;;;;;;5080700;28;20560;-71
2021/11/17 14:25:46;;;;;;;1.57;1.50;;;14.10;90.90;;;;;;5077476;28;20639;-71
2021/11/17 14:28:18;;;;;;;8.47;3.27;;;14.10;90.90;;;;;;5085169;28;20234;-71
2021/11/17 14:30:47;;;;;;;4.10;3.73;;;14.00;90.90;;;;;;5084405;28;20221;-71
2021/11/17 14:33:19;;;;;;;3.73;2.53;;;14.00;91.00;;;;;;5073844;28;20625;-71
2021/11/17 14:35:47;;;;;;;3.70;2.20;;;13.90;91.00;;;;;;5086516;28;20738;-71
2021/11/17 14:38:18;;;;;;;2.47;1.30;;;13.90;91.00;;;;;;5085871;28;20214;-72
2021/11/17 14:40:47;;;;;;;4.13;3.73;;;13.80;91.10;;;;;;5084636;28;20216;-71
2021/11/17 14:43:17;;;;;;;3.67;1.77;;;13.80;91.10;;;;;;5089690;28;20224;-71
2021/11/17 14:45:46;;;;;;;4.43;3.30;;;13.70;91.10;;;;;;5077254;28;20225;-71
2021/11/17 14:48:14;;;;;;;3.50;3.20;;;13.70;91.20;;;;;;5074498;28;20271;-71
2021/11/17 14:50:46;;;;;;;5.77;3.93;;;13.70;91.20;;;;;;5083102;28;20283;-71
2021/11/17 14:53:33;;;;;;;4.17;3.73;;;13.70;91.30;;;;;;5090824;28;20665;-71
2021/11/17 14:56:00;;;;;;;1.50;1.40;;;13.60;91.30;;;;;;5092013;28;20213;-71
2021/11/17 14:58:31;;;;;;;3.33;1.80;;;13.60;91.40;;;;;;5086479;28;20228;-71
2021/11/17 15:01:00;;;;;;;2.90;2.60;;;13.60;91.50;;;;;;5088493;28;20212;-71
2021/11/17 15:03:28;;;;;;;4.30;2.47;;;13.50;91.50;;;;;;5081085;28;20653;-72
2021/11/17 15:05:55;;;;;;;8.60;5.27;;;13.50;91.60;;;;;;5083836;28;20210;-71
2021/11/17 15:08:22;;;;;;;5.07;2.87;;;13.50;91.60;;;;;;5082394;28;20234;-71
2021/11/17 15:10:49;;;;;;;3.20;2.90;;;13.40;91.70;;;;;;5084436;28;20214;-71
2021/11/17 15:13:18;;;;;;;2.17;1.80;;;13.40;91.70;;;;;;5087685;28;20217;-71
2021/11/17 15:15:48;;;;;;;3.60;2.53;;;13.30;91.80;;;;;;5085974;28;20204;-71
2021/11/17 15:18:20;;;;;;;4.80;3.20;;;13.30;92.20;;;;;;5090804;28;20248;-71
2021/11/17 15:20:47;;;;;;;10.13;2.83;;;13.20;91.90;;;;;;5084895;28;20228;-71
2021/11/17 15:23:17;;;;;;;5.83;5.30;;;13.20;92.00;;;;;;5084719;28;20664;-71
2021/11/17 15:25:46;;;;;;;3.43;3.17;;;13.10;92.00;;;;;;5088579;28;20623;-71
2021/11/17 15:28:16;;;;;;;6.33;2.07;;;13.10;92.10;;;;;;5086593;28;20569;-71
2021/11/17 15:30:48;;;;;;;2.63;2.20;;;13.00;92.10;;;;;;5086326;28;20282;-71
2021/11/17 15:33:16;;;;;;;2.63;2.43;;;13.00;92.20;;;;;;5088745;28;20217;-71
2021/11/17 15:35:44;;;;;;;1.10;1.10;;;12.90;92.20;;;;;;5087001;28;20301;-71
2021/11/17 15:38:12;;;;;;;4.00;2.90;;;12.90;92.30;;;;;;5088312;28;20220;-71
2021/11/17 15:40:44;;;;;;;2.83;1.83;;;12.80;92.30;;;;;;5083294;28;20677;-71
2021/11/17 15:43:18;;;;;;;3.43;2.57;;;12.80;92.40;;;;;;5089592;28;20231;-71
2021/11/17 15:45:45;;;;;;;5.37;4.83;;;12.80;92.50;;;;;;5082451;28;20584;-71
2021/11/17 15:48:13;;;;;;;1.83;1.57;;;12.80;92.50;;;;;;5081252;28;20362;-71
2021/11/17 15:51:02;;;;;;;2.90;1.30;;;12.80;92.60;;;;;;5080019;28;20555;-71
2021/11/17 15:53:29;;;;;;;2.20;2.10;;;12.80;92.60;;;;;;5091507;28;20220;-71
2021/11/17 15:55:57;;;;;;;3.90;1.93;;;12.80;92.60;;;;;;5089692;28;20241;-72
2021/11/17 15:58:24;;;;;;;2.53;2.00;;;12.80;92.60;;;;;;5087317;28;20626;-71
2021/11/17 16:00:52;;;;;;;3.77;2.53;;;12.70;92.60;;;;;;5090167;28;20417;-70
2021/11/17 16:03:21;;;;;;;7.70;3.70;;;12.80;92.60;;;;;;5088468;28;20252;-72